Terminal Aerodrome Forecast
Issued by NWS

Home | Current Version | Previous Version | Text Only | Print | Product List | Glossary Off
Versions: 1 2 3 4 5 6 7 8 9 10 11 12 13 14 15 16 17

381
FTUS43 KICT 091120
TAFSLN
TAF
KSLN 091120Z 0912/1012 VRB03KT P6SM SCT050 BKN080
     FM091400 15006KT P6SM SCT050 BKN080
     FM091700 17012KT P6SM BKN080
     FM092300 14005KT P6SM SCT070 BKN250=

USA.gov is the U.S. government's official web portal to all federal, state and local government web resources and services.